ADDS METAR Data INFO
IDs: Format: Raw Decoded Include TAF

Data at: 1148 UTC 25 Jun 2018

KHRL 251052Z 14010KT 7SM CLR 26/26 A2989 RMK AO2 SLP120 T02610256
KHRL 250952Z 15009KT 7SM CLR 26/26 A2988 RMK AO2 SLP116 T02610256
KHRL 250852Z 12004KT 9SM CLR 26/24 A2988 RMK AO2 SLP118 T02560244 50001
KHRL 250752Z 13006KT 10SM CLR 26/24 A2989 RMK AO2 SLP120 T02560244
KHRL 250652Z 15007KT 10SM CLR 26/24 A2989 RMK AO2 SLP120 T02560244
KHRL 250552Z 14009KT 10SM CLR 26/24 A2988 RMK AO2 SLP117 T02560244 10311 20256 403390256 51012
KHRL 250452Z AUTO 14010KT 10SM CLR 26/24 A2988 RMK AO2 SLP117 T02610244
KHRL 250352Z AUTO 13010KT 10SM CLR 27/24 A2986 RMK AO2 SLP112 T02670244
KHRL 250252Z AUTO 13010KT 10SM CLR 27/24 A2984 RMK AO2 SLP105 T02670244 53014
KHRL 250152Z AUTO 13010KT 10SM CLR 27/23 A2983 RMK AO2 SLP101 T02720233
KHRL 250052Z AUTO 12012KT 10SM CLR 29/24 A2981 RMK AO2 SLP093 T02890239
KHRL 242352Z AUTO 13013KT 10SM FEW032 31/24 A2980 RMK AO2 SLP092 T03110239 10339 20306 56006
KHRL 242252Z AUTO 14017KT 10SM CLR 32/24 A2981 RMK AO2 PK WND 13026/2202 SLP093 T03220239
KHRL 242152Z AUTO 13019G24KT 10SM BKN036 BKN048 BKN060 32/26 A2981 RMK AO2 SLP094 T03220256
KHRL 242052Z AUTO 13013KT 10SM FEW033 33/24 A2982 RMK AO2 SLP097 T03280244 57007
KHRL 241952Z AUTO 13018KT 10SM CLR 33/25 A2983 RMK AO2 PK WND 14026/1904 SLP101 T03280250
KHRL 241852Z 14018G23KT 10SM FEW036 SCT045 BKN050 33/25 A2983 RMK AO2 PK WND 15026/1835 SLP101 T03330250
KHRL 241752Z 14019KT 10SM FEW030 SCT036 BKN060 32/26 A2984 RMK AO2 SLP104 T03220256 10328 20261 53007
KHRL 241652Z 14015KT 10SM BKN030 BKN035 BKN045 33/26 A2983 RMK AO2 SLP101 T03280256
KHRL 241552Z 17015KT 10SM FEW040 31/25 A2982 RMK AO2 SLP098 T03110250
KHRL 241452Z 16014KT 9SM SCT023 SCT036 31/26 A2982 RMK AO2 SLP097 T03060256 58002
KHRL 241441Z 17015KT 8SM SCT020 29/26 A2982 RMK AO2 T02940256
KHRL 241352Z 16009KT 6SM BR BKN016 BKN023 OVC032 28/26 A2982 RMK AO2 SLP099 T02830261
KHRL 241337Z 15008KT 5SM BR BKN016 BKN023 OVC029 28/26 A2983 RMK AO2 T02780261
KHRL 241252Z 16006KT 5SM BR BKN014 OVC018 27/26 A2984 RMK AO2 SLP103 T02720261
KHRL 241152Z 16006KT 5SM BR SCT019 BKN026 BKN031 27/26 A2982 RMK AO2 SLP098 T02670256 10278 20261 58005
KHRL 241120Z 15007KT 7SM SCT019 BKN024 26/26 A2983 RMK AO2 T02610256
KHRL 241109Z 15007KT 7SM FEW019 SCT024 26/26 A2983 RMK AO2 T02610256
KHRL 241052Z 15009KT 8SM BKN020 BKN028 27/26 A2982 RMK AO2 SLP099 T02670256
KHRL 241042Z AUTO 15008KT 8SM BKN020 BKN030 27/26 A2982 RMK AO2 T02670256
KHRL 241035Z AUTO 15008KT 8SM SCT020 BKN030 27/26 A2983 RMK AO2 T02670256
KHRL 240952Z AUTO 15008KT 9SM SCT018 BKN025 27/26 A2984 RMK AO2 SLP104 T02670256
KHRL 240852Z AUTO 15011KT 10SM CLR 27/26 A2984 RMK AO2 SLP103 T02670256 56004
KHRL 240752Z AUTO 16014KT 10SM SCT020 27/26 A2984 RMK AO2 SLP103 T02720256
KHRL 240748Z AUTO 16014KT 10SM SCT020 27/26 A2984 RMK AO2
KHRL 240652Z AUTO 16015KT 10SM BKN021 OVC026 28/26 A2985 RMK AO2 SLP107 T02780256
KHRL 240621Z AUTO 16013KT 10SM BKN021 28/26 A2984 RMK AO2 T02780256
KHRL 240552Z AUTO 15017KT 9SM SCT020 28/26 A2984 RMK AO2 PK WND 15026/0457 SLP103 T02780256 10300 20278 403500261 50014
KHRL 240452Z AUTO 16015KT 6SM BR FEW019 BKN025 28/26 A2984 RMK AO2 SLP105 T02780261
KHRL 240352Z 15015G21KT 7SM FEW021 28/26 A2982 RMK AO2 SLP098 T02780261
KHRL 240339Z 15015KT 6SM BR SCT021 28/26 A2982 RMK AO2 T02780261
KHRL 240326Z 14015KT 6SM BR BKN021 28/26 A2982 RMK AO2 T02780261
KHRL 240252Z 14015KT 7SM CLR 28/26 A2979 RMK AO2 SLP089 T02780261 53020
KHRL 240152Z 14013KT 9SM CLR 28/26 A2976 RMK AO2 SLP077 T02830261
KHRL 240052Z 14015KT 9SM CLR 30/26 A2974 RMK AO2 SLP072 T03000256
KHRL 232352Z 15016KT 9SM CLR 32/25 A2974 RMK AO2 PK WND 16027/2321 SLP069 T03170250 10350 20317 55006